Deauville-Saint-Gatien Airport

Airport
ICAO code: 
LFRG
IATA Code: 
DOL
Summary
ICAO Region: 
EUR
Territory: 
Location: 
, Basse-Normandie
Serving: 
Deauville
Elevation: 
479 ft
Coordinates: 
Aerial View: 
49° 21' 55.22" N, 0° 9' 15.502" E
Metar
Observation
LFRG 302130Z AUTO 22016KT 9999 OVC011 09/08 Q1011
Station
ST GATIEN
Date/Time
2021-11-30 21:30:00
Wind direction
220°
Wind speed
16 kts
Lowest cloud amount
overcast
Temperature
9°C
Dew point
8°C
Humidity
93%
QNH
1011 hPa
Weather condition
n/a

Runways

Designator Length Width Surface Rops
12/30 2550 45 ASP Yes/Yes
Airport map: 
Aerial View: 

Accidents and Serious Incidents at or in the vicinity of LFRG

SKYbrary Partners:

Safety knowledge contributed by: